Home > Products > Valid Products > TAF

000
FTUS41 KPHI 171100
TAFRDG
TAF
KRDG 171120Z 1712/1812 07009KT P6SM SKC
     FM171800 11010KT P6SM FEW045
     FM180000 12005KT P6SM SCT200
     FM180800 12003KT 5SM BR BKN020=



000
FTUS41 KPHI 171100
TAFACY
TAF
KACY 171120Z 1712/1812 04010G17KT P6SM SCT035
      TEMPO 1712/1713 BKN035
     FM171800 08014G22KT P6SM SCT030
     FM180000 07011KT P6SM SCT025
     FM180200 07009KT P6SM BKN020=



000
FTUS41 KPHI 171100
TAFILG
TAF
KILG 171120Z 1712/1812 05010G17KT P6SM SCT035
     FM171600 11012G18KT P6SM SCT040
     FM180000 10012KT P6SM SCT035
     FM180600 05006KT P6SM BKN025=



000
FTUS41 KPHI 171100
TAFMIV
TAF
KMIV 171120Z 1712/1812 04010KT P6SM SCT035
      TEMPO 1712/1715 BKN035
     FM171800 09013G20KT P6SM SCT030
     FM180300 08006KT P6SM BKN020=



000
FTUS41 KPHI 171100
TAFPNE
TAF
KPNE 171120Z 1712/1812 04010G16KT P6SM FEW035
     FM171700 09011G18KT P6SM SCT040
     FM180300 09006KT P6SM BKN030=



000
FTUS41 KPHI 171100
TAFPHL
TAF
KPHL 171120Z 1712/1818 05010G16KT P6SM SCT035
     FM171700 08012G18KT P6SM SCT040
     FM180300 07008KT P6SM BKN030
     FM181100 05005KT 6SM BR BKN020
     FM181700 07004KT P6SM BKN035=



000
FTUS41 KPHI 171100
TAFTTN
TAF
KTTN 171120Z 1712/1812 06009G17KT P6SM FEW035
     FM171600 10012KT P6SM SCT040
     FM180000 14008KT P6SM SCT040
     FM180600 08005KT 6SM BR BKN030=



000
FTUS41 KPHI 171100
TAFABE
TAF
KABE 171120Z 1712/1812 07008KT P6SM SKC
     FM171800 10010KT P6SM FEW045
     FM180000 10007KT P6SM SCT200
     FM180600 11006KT 5SM BR BKN020=



000
FTUS41 KPHI 170900 AAA
TAFPHL
TAF AMD
KPHL 170904Z 1709/1812 04008KT P6SM SKC
     FM171200 06012KT P6SM SCT250
     FM171700 08012G18KT P6SM SCT040
     FM180400 07008KT P6SM FEW020
     FM180900 05005KT P6SM BKN020=



000
FTUS41 KPHI 170800 AAA
TAFTTN
TAF AMD
KTTN 170806Z 1708/1806 04009G16KT P6SM SKC
     FM171000 06009KT P6SM SKC
     FM171200 08010KT P6SM SCT250
     FM171800 10012KT P6SM FEW045
     FM180000 14008KT P6SM SCT200=



000
FTUS41 KPHI 170500
TAFTTN
TAF
KTTN 170535Z 1706/1806 04006KT P6SM SCT250
     FM171200 08010KT P6SM SCT250
     FM171800 10012KT P6SM FEW045
     FM180000 14008KT P6SM SCT200=



000
FTUS41 KPHI 170500
TAFILG
TAF
KILG 170535Z 1706/1806 04007KT P6SM SCT250
     FM171200 07010KT P6SM SCT250
     FM171600 11012G18KT P6SM SCT040
     FM180000 10012KT P6SM SCT200=



000
FTUS41 KPHI 170500
TAFACY
TAF
KACY 170535Z 1706/1806 VRB03KT P6SM SKC
     FM171200 05012KT P6SM SCT030
     FM171800 08014G22KT P6SM SCT030
     FM180000 07011KT P6SM FEW020
     FM180500 07009KT P6SM BKN020=



000
FTUS41 KPHI 170500
TAFPNE
TAF
KPNE 170535Z 1706/1806 03006KT P6SM SCT250
     FM171200 07010KT P6SM SCT250
     FM171700 09011G18KT P6SM SCT040
     FM180100 09006KT P6SM SCT200=



000
FTUS41 KPHI 170500
TAFPHL
TAF
KPHL 170535Z 1706/1812 04009KT P6SM SCT250
     FM171200 06012KT P6SM SCT250
     FM171700 08012G18KT P6SM SCT040
     FM180400 07008KT P6SM FEW020
     FM180900 05005KT P6SM BKN020=



000
FTUS41 KPHI 170500
TAFRDG
TAF
KRDG 170535Z 1706/1806 01004KT P6SM SCT250
     FM171200 07007KT P6SM SCT250
     FM171800 11010KT P6SM FEW045
     FM180000 12005KT P6SM SCT200=



000
FTUS41 KPHI 170500
TAFMIV
TAF
KMIV 170535Z 1706/1806 00000KT P6SM SKC
     FM171200 07010KT P6SM FEW030
     FM171800 09013G20KT P6SM SCT030
     FM180500 08006KT P6SM BKN020=



000
FTUS41 KPHI 170500
TAFABE
TAF
KABE 170535Z 1706/1806 02004KT P6SM SCT250
     FM171200 08007KT P6SM SCT250
     FM171800 10010KT P6SM FEW045
     FM180000 10007KT P6SM SCT200=



000
FTUS41 KPHI 162300
TAFMIV
TAF
KMIV 162340Z 1700/1724 01008KT P6SM SKC
     FM170400 05007KT P6SM FEW250
     FM171200 07010KT P6SM SCT250
     FM171800 09013KT P6SM SCT030=



000
FTUS41 KPHI 162300
TAFPHL
TAF
KPHL 162340Z 1700/1806 01010KT P6SM FEW250
     FM170400 05007KT P6SM FEW250
     FM171200 07010KT P6SM SCT250
     FM171800 09012KT P6SM SCT030
     FM180200 07008KT P6SM FEW020 SCT030=



000
FTUS41 KPHI 162300
TAFTTN
TAF
KTTN 162340Z 1700/1724 02009KT P6SM SKC
     FM170400 06007KT P6SM FEW250
     FM171200 08010KT P6SM SCT250
     FM171800 10012KT P6SM FEW040 SCT250=



000
FTUS41 KPHI 162300
TAFABE
TAF
KABE 162340Z 1700/1724 36008KT P6SM SKC
     FM170400 05004KT P6SM FEW250
     FM171200 08009KT P6SM SCT250
     FM171800 11010KT P6SM SCT250=



000
FTUS41 KPHI 162300
TAFACY
TAF
KACY 162340Z 1700/1724 10009KT P6SM SKC
     FM170200 08007KT P6SM FEW250
     FM171200 09012KT P6SM SCT250
     FM171800 09014KT P6SM SCT030=



000
FTUS41 KPHI 162300
TAFRDG
TAF
KRDG 162340Z 1700/1724 04008KT P6SM SKC
     FM170400 07004KT P6SM FEW250
     FM171200 08010KT P6SM SCT250
     FM171800 12010KT P6SM SCT250=



000
FTUS41 KPHI 162300
TAFILG
TAF
KILG 162340Z 1700/1724 01010KT P6SM SKC
     FM170400 05007KT P6SM FEW250
     FM171200 07010KT P6SM SCT250
     FM171800 09012KT P6SM SCT030=



000
FTUS41 KPHI 162300
TAFPNE
TAF
KPNE 162340Z 1700/1724 02009KT P6SM SKC
     FM170400 05007KT P6SM FEW250
     FM171200 07010KT P6SM SCT250
     FM171800 09011KT P6SM SCT030=



000
FTUS41 KPHI 162200 AAA
TAFTTN
TAF AMD
KTTN 162212Z 1622/1718 35010G20KT P6SM SKC
     FM162300 02010KT P6SM SKC
     FM170400 06007KT P6SM FEW250
     FM171200 08009KT P6SM SCT250=



000
FTUS41 KPHI 162200 AAB
TAFACY
TAF AMD
KACY 162206Z 1622/1718 10011KT P6SM SKC
     FM162330 08010KT P6SM SKC
     FM170200 06008KT P6SM FEW250
     FM171200 08012G22KT P6SM SCT250=



000
FTUS41 KPHI 162100 AAA
TAFACY
TAF AMD
KACY 162126Z 1621/1718 03012KT P6SM SKC
     FM162300 03010KT P6SM SKC
     FM170200 05008KT P6SM FEW250
     FM171200 08012G22KT P6SM SCT250=



000
FTUS41 KPHI 162100 AAA
TAFMIV
TAF AMD
KMIV 162120Z 1621/1718 02010G20KT P6SM SKC
     FM162200 02011KT P6SM SKC
     FM170100 06007KT P6SM FEW250
     FM171200 08010G20KT P6SM SCT250=



000
FTUS41 KPHI 162000 AAA
TAFILG
TAF AMD
KILG 162053Z 1621/1718 01013KT P6SM SKC
     FM162300 03010KT P6SM SKC
     FM170400 06007KT P6SM FEW250
     FM171200 08009KT P6SM SCT250=



000
FTUS41 KPHI 162000 AAA
TAFPNE
TAF AMD
KPNE 162050Z 1621/1718 36012KT P6SM SKC
     FM162300 03009KT P6SM SKC
     FM170400 06007KT P6SM FEW250
     FM171200 08009KT P6SM SCT250=



000
FTUS41 KPHI 162000 AAA
TAFPHL
TAF AMD
KPHL 162045Z 1621/1724 35011KT P6SM SKC
     FM162300 02009KT P6SM SKC
     FM170400 06007KT P6SM FEW250
     FM171200 08009KT P6SM SCT250
     FM171800 09010KT P6SM SCT030=



000
FTUS41 KPHI 161700
TAFPNE
TAF
KPNE 161723Z 1618/1718 35012G22KT P6SM SKC
     FM162200 02010KT P6SM SKC
     FM170400 06007KT P6SM FEW250
     FM171200 08009KT P6SM SCT250=



000
FTUS41 KPHI 161700
TAFILG
TAF
KILG 161723Z 1618/1718 34012G22KT P6SM SKC
     FM162200 02010KT P6SM SKC
     FM170400 06007KT P6SM FEW250
     FM171200 08009KT P6SM SCT250=



000
FTUS41 KPHI 161700
TAFTTN
TAF
KTTN 161723Z 1618/1718 34012G22KT P6SM SKC
     FM162200 02010KT P6SM SKC
     FM170400 06007KT P6SM FEW250
     FM171200 08009KT P6SM SCT250=



000
FTUS41 KPHI 161700
TAFRDG
TAF
KRDG 161723Z 1618/1718 35012G20KT P6SM SKC
     FM162100 36008KT P6SM SKC
     FM170400 06005KT P6SM FEW250
     FM171200 08010KT P6SM SCT250=



000
FTUS41 KPHI 161700
TAFMIV
TAF
KMIV 161723Z 1618/1718 35010G20KT P6SM SKC
     FM162200 01010KT P6SM SKC
     FM170200 06005KT P6SM FEW250
     FM171200 08010G20KT P6SM SCT250=



000
FTUS41 KPHI 161700
TAFACY
TAF
KACY 161723Z 1618/1718 34014G22KT P6SM SKC
     FM162200 01012KT P6SM SKC
     FM170200 05008KT P6SM FEW250
     FM171200 08012G22KT P6SM SCT250=



000
FTUS41 KPHI 161700
TAFABE
TAF
KABE 161723Z 1618/1718 35012G20KT P6SM SKC
     FM162100 35007KT P6SM SKC
     FM170400 07004KT P6SM FEW250
     FM171200 09008KT P6SM SCT250=



000
FTUS41 KPHI 161700
TAFPHL
TAF
KPHL 161723Z 1618/1724 35012G22KT P6SM SKC
     FM162200 02010KT P6SM SKC
     FM170400 06007KT P6SM FEW250
     FM171200 08009KT P6SM SCT250
     FM171800 09010KT P6SM SCT030=



000
FTUS41 KPHI 161500 AAA
TAFACY
TAF AMD
KACY 161543Z 1616/1712 35014G22KT P6SM SKC
     FM162300 05008KT P6SM SCT250=



000
FTUS41 KPHI 161500 AAA
TAFILG
TAF AMD
KILG 161541Z 1616/1712 34014G22KT P6SM SKC
     FM162200 04010KT P6SM SCT250=



000
FTUS41 KPHI 161500 AAB
TAFTTN
TAF AMD
KTTN 161540Z 1616/1712 34014G24KT P6SM SKC
     FM162200 02008KT P6SM SCT250=



000
FTUS41 KPHI 161500 AAA
TAFPNE
TAF AMD
KPNE 161540Z 1616/1712 34012G22KT P6SM SKC
     FM162200 03009KT P6SM SCT250=



000
FTUS41 KPHI 161500 AAA
TAFTTN
TAF AMD
KTTN 161538Z 1616/1712 34014G24KT P6SM SKC
     FM162200 04008KT P6SM SCT250=



000
FTUS41 KPHI 161500 AAA
TAFPHL
TAF AMD
KPHL 161537Z 1616/1718 35014G22KT P6SM SKC
     FM162200 02010KT P6SM SCT250
     FM170400 06007KT P6SM SCT250=



000
FTUS41 KPHI 161100
TAFILG
TAF
KILG 161120Z 1612/1712 34018G27KT P6SM SKC
     FM161500 36015G18KT P6SM SKC
     FM162200 04010KT P6SM SCT250=



000
FTUS41 KPHI 161100
TAFPNE
TAF
KPNE 161120Z 1612/1712 33015G25KT P6SM SKC
     FM161500 36012G18KT P6SM SKC
     FM162200 03009KT P6SM SCT250=



000
FTUS41 KPHI 161100
TAFRDG
TAF
KRDG 161120Z 1612/1712 34012G20KT P6SM SKC
     FM162300 04005KT P6SM SCT250=



000
FTUS41 KPHI 161100
TAFTTN
TAF
KTTN 161120Z 1612/1712 34015G28KT P6SM SKC
     FM161500 01014G20KT P6SM SKC
     FM162200 04008KT P6SM SCT250=



000
FTUS41 KPHI 161100
TAFABE
TAF
KABE 161120Z 1612/1712 33010G18KT P6SM SKC
     FM162200 04006KT P6SM SCT250=



000
FTUS41 KPHI 161100
TAFPHL
TAF
KPHL 161120Z 1612/1718 34018G26KT P6SM SKC
     FM161600 36012G18KT P6SM SKC
     FM162300 05010KT P6SM SCT250=



000
FTUS41 KPHI 161100
TAFACY
TAF
KACY 161120Z 1612/1712 32018G28KT P6SM SKC
     FM161500 36015G18KT P6SM SKC
     FM162300 05008KT P6SM SCT250=



000
FTUS41 KPHI 161100
TAFMIV
TAF
KMIV 161120Z 1612/1712 34010G20KT P6SM SKC
     FM162300 06008KT P6SM SCT250=



000
FTUS41 KPHI 160800 AAA
TAFPHL
TAF AMD
KPHL 160858Z 1609/1712 34018G25KT P6SM SCT110
     FM161600 36012G18KT P6SM SKC
     FM162300 03010KT P6SM SCT250=



000
FTUS41 KPHI 160600 AAA
TAFACY
TAF AMD
KACY 160608Z 1606/1706 34010G16KT P6SM FEW010 OVC090
     FM160800 32018G28KT P6SM BKN070
     FM161500 36015G18KT P6SM SKC
     FM162300 05008KT P6SM SCT250=



000
FTUS41 KPHI 160500
TAFABE
TAF
KABE 160540Z 1606/1706 33014G25KT P6SM BKN040
     FM161500 35010G18KT P6SM SKC
     FM162200 04006KT P6SM SCT250=



000
FTUS41 KPHI 160500
TAFTTN
TAF
KTTN 160540Z 1606/1706 33012G25KT P6SM BKN070
     FM161500 01014G20KT P6SM SKC
     FM162200 04008KT P6SM SCT250=



000
FTUS41 KPHI 160500
TAFMIV
TAF
KMIV 160540Z 1606/1706 32010G18KT P6SM BKN045 OVC070
      TEMPO 1606/1607 6SM -RA BR
     FM160800 32012G25KT P6SM BKN070
     FM161500 36010G18KT P6SM SKC
     FM162300 04008KT P6SM SCT250=



000
FTUS41 KPHI 160500
TAFACY
TAF
KACY 160540Z 1606/1706 33015G28KT 6SM RA BR FEW006 OVC030
      TEMPO 1606/1607 2SM -RASN BR
     FM160800 32018G28KT P6SM BKN070
     FM161500 36015G18KT P6SM SKC
     FM162300 05008KT P6SM SCT250=



000
FTUS41 KPHI 160500
TAFRDG
TAF
KRDG 160540Z 1606/1706 32015G25KT P6SM BKN040
     FM161500 35009G18KT P6SM SKC
     FM162300 04005KT P6SM SCT250=



000
FTUS41 KPHI 160500
TAFPNE
TAF
KPNE 160540Z 1606/1706 33015G25KT P6SM BKN070
     FM161500 36012G18KT P6SM SKC
     FM162200 03009KT P6SM SCT250=



000
FTUS41 KPHI 160500
TAFILG
TAF
KILG 160540Z 1606/1706 32015G25KT P6SM BKN035
     FM161500 36015G18KT P6SM SKC
     FM162200 04010KT P6SM SCT250=



000
FTUS41 KPHI 160500
TAFPHL
TAF
KPHL 160540Z 1606/1712 33015G25KT P6SM BKN070
     FM161600 36012G18KT P6SM SKC
     FM162300 03010KT P6SM SCT250=



000
FTUS41 KPHI 160300 AAC
TAFACY
TAF AMD
KACY 160348Z 1604/1624 33015G28KT 6SM RA BR SCT013 OVC022
      TEMPO 1604/1607 3SM -RASN BR BKN008 OVC013
     FM160700 32018G28KT P6SM SCT030
     FM160900 32012G22KT P6SM FEW050
     FM161800 34015KT P6SM SKC=



000
FTUS41 KPHI 160300 AAC
TAFMIV
TAF AMD
KMIV 160346Z 1604/1624 33015G20KT 5SM -RA BR SCT008 OVC012
      TEMPO 1604/1607 2SM -RASN BR OVC008
     FM160700 32018G28KT P6SM SCT030
     FM160900 32012G22KT P6SM FEW050
     FM161800 34015KT P6SM SKC=



000
FTUS41 KPHI 160300 AAC
TAFPHL
TAF AMD
KPHL 160329Z 1603/1706 33015G23KT P6SM -SHRA SCT013 OVC028
      TEMPO 1603/1605 6SM -SHRA OVC013
     FM160500 32020G30KT P6SM SCT030
     FM160800 34015G25KT P6SM FEW050
     FM161800 36012G18KT P6SM SKC
     FM162000 01011KT P6SM SKC=



000
FTUS41 KPHI 160300 AAC
TAFRDG
TAF AMD
KRDG 160305Z 1603/1624 32012G20KT P6SM SCT024 OVC035
      TEMPO 1603/1605 BKN024 OVC035
     FM160500 32015G25KT P6SM SCT040
     FM160700 32012G22KT P6SM FEW050
     FM161800 35009KT P6SM SKC=



000
FTUS41 KPHI 160300 AAD
TAFABE
TAF AMD
KABE 160303Z 1603/1624 32010G18KT 6SM -SHSN SCT015 OVC035
      TEMPO 1603/1605 4SM -SHSN BR OVC015
     FM160500 32015G25KT P6SM OVC030
     FM160700 33012G22KT P6SM FEW050
     FM161900 35010KT P6SM SKC=



000
FTUS41 KPHI 160200 CCA
TAFRDG
TAF COR
KRDG 160201Z 1602/1624 32012KT 6SM -SHSN SCT008 OVC015
      TEMPO 1602/1605 2SM -SHSN BKN008
     FM160500 32015G25KT P6SM SCT040
     FM160700 32012G22KT P6SM FEW050
     FM161800 35009KT P6SM SKC=



000
FTUS41 KPHI 160200 AAB
TAFACY
TAF AMD
KACY 160200Z 1602/1624 32020G30KT 6SM -SHRA BR SCT015 OVC035
      TEMPO 1603/1605 3SM SHRA BR BKN015
     FM160500 32018G28KT P6SM SCT020 BKN030
     FM160800 30012G22KT P6SM SCT050
     FM161200 34015KT P6SM SKC=



000
FTUS41 KPHI 160100 AAA
TAFPNE
TAF AMD
KPNE 160159Z 1602/1624 34015G25KT 6SM -SHRA BR SCT025 OVC035
      TEMPO 1602/1605 5SM -SHRA OVC025
     FM160500 32020G30KT P6SM SCT030
     FM160800 34015G25KT P6SM SCT050
     FM161800 36012G18KT P6SM SKC
     FM162000 01011KT P6SM SKC=



000
FTUS41 KPHI 160100 AAB
TAFPHL
TAF AMD
KPHL 160158Z 1602/1706 33015G25KT 6SM -SHRA BR SCT015 OVC035
      TEMPO 1602/1605 5SM -SHRAPL OVC015
     FM160500 32020G30KT P6SM SCT030
     FM160800 34015G25KT P6SM FEW050
     FM161800 36012G18KT P6SM SKC
     FM162000 01011KT P6SM SKC=



000
FTUS41 KPHI 160100 AAA
TAFTTN
TAF AMD
KTTN 160157Z 1602/1624 34015G25KT 6SM -SHRA BR SCT015 OVC035
      TEMPO 1602/1605 5SM -SHRA OVC015
     FM160500 35015G25KT P6SM SCT030
     FM160700 34012G22KT P6SM FEW050
     FM161800 02014G20KT P6SM BKN250
     FM162100 02009KT P6SM SKC=



000
FTUS41 KPHI 160100 AAC
TAFABE
TAF AMD
KABE 160156Z 1602/1624 32010G20KT 6SM -SHSN SCT015 OVC035
      TEMPO 1602/1605 3/4SM -SHSN BR OVC010
     FM160500 32015G25KT P6SM OVC030
     FM160700 33012G22KT P6SM FEW050
     FM161900 35010KT P6SM SKC=



000
FTUS41 KPHI 160100 AAB
TAFRDG
TAF AMD
KRDG 160149Z 1602/1624 32012KT 6SM -SHSN SCT008 OVC015
      TEMPO 1602/1605 2SM SHRASN BKN008
     FM160500 32015G25KT P6SM SCT040
     FM160700 32012G22KT P6SM FEW050
     FM161800 35009KT P6SM SKC=



000
FTUS41 KPHI 160100 AAB
TAFABE
TAF AMD
KABE 160148Z 1602/1624 32010G20KT 6SM -SHSN SCT025 OVC035
      TEMPO 1602/1605 1SM -SHSN BR OVC015
     FM160500 32015G25KT P6SM OVC030
     FM160700 33012G22KT P6SM FEW050
     FM161900 35010KT P6SM SKC=



000
FTUS41 KPHI 160100 AAB
TAFILG
TAF AMD
KILG 160143Z 1602/1624 33015G25KT 6SM -SHRA BR SCT015 OVC035
      TEMPO 1602/1605 5SM -SHRA BR BKN015
     FM160500 32018G30KT P6SM BKN030
     FM160700 33012G22KT P6SM FEW050
     FM161200 34015KT P6SM SKC=



000
FTUS41 KPHI 160100 AAB
TAFMIV
TAF AMD
KMIV 160142Z 1602/1624 33015G25KT 6SM -SHRA BR SCT010 OVC035
      TEMPO 1602/1605 3SM SHRA BR OVC025
     FM160500 32018G28KT P6SM SCT030
     FM160700 32012G22KT P6SM FEW050
     FM161200 34015KT P6SM SKC=



000
FTUS41 KPHI 160100 AAA
TAFACY
TAF AMD
KACY 160141Z 1602/1624 32020G30KT 6SM -SHRA BR SCT015 OVC035
      TEMPO 1602/1604 3SM SHRA BR BKN008
     FM160400 32022G35KT 5SM -SHRA BR OVC020
     FM160600 32018G28KT P6SM SCT020 BKN030
     FM160800 30012G22KT P6SM SCT050
     FM161200 34015KT P6SM SKC=



000
FTUS41 KPHI 160100 AAA
TAFPHL
TAF AMD
KPHL 160105Z 1601/1706 32015G25KT 6SM -SHRA BR SCT015 OVC035
      TEMPO 1601/1603 5SM -SHRAPL OVC015
     FM160300 32020G30KT P6SM SCT030
     FM161000 34015G25KT P6SM FEW050
     FM161800 36012G18KT P6SM SKC
     FM162000 01011KT P6SM SKC=



000
FTUS41 KPHI 160100 AAA
TAFRDG
TAF AMD
KRDG 160101Z 1601/1624 32012KT 6SM -SHRA SCT015 OVC025
      TEMPO 1601/1603 4SM SHRASN BKN009
     FM160300 32015G25KT P6SM SCT040
     FM160600 32012G22KT P6SM FEW050
     FM161800 35009KT P6SM SKC=



000
FTUS41 KPHI 160100 AAA
TAFMIV
TAF AMD
KMIV 160100Z 1601/1624 33015G25KT 5SM -SHRA BR SCT010 OVC020
      TEMPO 1601/1603 3SM SHRA BR OVC010
     FM160500 32018G28KT P6SM SCT030
     FM160700 32012G22KT P6SM FEW050
     FM161200 34015KT P6SM SKC=



000
FTUS41 KPHI 160000 AAA
TAFILG
TAF AMD
KILG 160059Z 1601/1624 33015G25KT 6SM -SHRA BR SCT015 OVC035
      TEMPO 1601/1603 5SM -SHRA BR BKN015
     FM160300 32018G30KT P6SM BKN030
     FM160800 33012G22KT P6SM FEW050
     FM161200 34015KT P6SM SKC=



000
FTUS41 KPHI 160000 AAA
TAFABE
TAF AMD
KABE 160058Z 1601/1624 33010G20KT 6SM -SHRA SCT025 OVC035
      TEMPO 1601/1603 3SM SHRASN OVC025
     FM160300 32015G25KT P6SM OVC030
     FM160600 33012G22KT P6SM FEW050
     FM161900 35010KT P6SM SKC=



000
FTUS41 KPHI 160000 CCA
TAFACY
TAF COR
KACY 160003Z 1600/1624 34025G35KT 6SM -SHRA BR SCT015 OVC025
      TEMPO 1600/1602 3SM SHRA BR BKN008
     FM160200 32022G35KT 5SM -SHRA BR OVC020
     FM160600 32018G28KT P6SM SCT020 BKN030
     FM160800 30012G22KT P6SM SCT050
     FM161200 34015KT P6SM SKC=



000
FTUS41 KPHI 152300
TAFTTN
TAF
KTTN 152335Z 1600/1624 34015G25KT 6SM -SHRA BR SCT015 OVC035
      TEMPO 1600/1603 5SM -SHRA OVC015
     FM160300 35015G25KT P6SM SCT030
     FM160700 34012G22KT P6SM FEW050
     FM161800 02014G20KT P6SM BKN250
     FM162100 02009KT P6SM SKC=



000
FTUS41 KPHI 152300
TAFABE
TAF
KABE 152335Z 1600/1624 32011KT 6SM -SHRA SCT025 OVC035
      TEMPO 1600/1601 3SM SHRA OVC025
     FM160100 33015G22KT 3SM -SHRASN BR BKN015 OVC035
     FM160200 32015G25KT P6SM OVC030
     FM160600 33012G22KT P6SM FEW050
     FM161900 35010KT P6SM SKC=



000
FTUS41 KPHI 152300
TAFACY
TAF
KACY 152335Z 1600/1624 31015G25KT 6SM -SHRA BR SCT015 OVC025
      TEMPO 1600/1602 3SM SHRA BR BKN010
     FM160200 32022G35KT 5SM -SHRA BR OVC020
     FM160600 32018G28KT P6SM SCT020 BKN030
     FM160800 30012G22KT P6SM SCT050
     FM161200 34015KT P6SM SKC=



000
FTUS41 KPHI 152300
TAFILG
TAF
KILG 152335Z 1600/1624 31012G22KT 6SM -SHRA BR SCT015 OVC025
      TEMPO 1600/1603 5SM -SHRA BR BKN015
     FM160300 32018G30KT P6SM BKN030
     FM160800 33012G22KT P6SM FEW050
     FM161200 34015KT P6SM SKC=



000
FTUS41 KPHI 152300
TAFPHL
TAF
KPHL 152335Z 1600/1706 32015G25KT 6SM -SHRA BR SCT015 OVC035
      TEMPO 1600/1603 5SM -SHRA OVC015
     FM160300 32020G30KT P6SM SCT030
     FM161000 34015G25KT P6SM FEW050
     FM161800 36012G18KT P6SM SKC
     FM162000 01011KT P6SM SKC=



000
FTUS41 KPHI 152300
TAFRDG
TAF
KRDG 152335Z 1600/1624 32012KT 6SM -SHRA SCT015 OVC035
      TEMPO 1600/1601 4SM SHRA BKN015
     FM160100 33015G22KT 3SM -SHRASN BR BKN015 OVC035
     FM160200 32015G25KT P6SM SCT040
     FM160600 32012G22KT P6SM FEW050
     FM161800 35009KT P6SM SKC=



000
FTUS41 KPHI 152300
TAFPNE
TAF
KPNE 152335Z 1600/1624 32015G25KT 6SM -SHRA BR SCT015 OVC035
      TEMPO 1600/1603 5SM -SHRA OVC015
     FM160300 32020G30KT P6SM SCT030
     FM160800 34015G25KT P6SM SCT050
     FM161800 36012G18KT P6SM SKC
     FM162000 01011KT P6SM SKC=



000
FTUS41 KPHI 152300
TAFMIV
TAF
KMIV 152335Z 1600/1624 32020G35KT 5SM -SHRA BR SCT010 OVC020
      TEMPO 1600/1602 3SM SHRA BR OVC010
     FM160500 32018G28KT P6SM SCT030
     FM160700 32012G22KT P6SM FEW050
     FM161200 34015KT P6SM SKC=



000
FTUS41 KPHI 152300 AAC
TAFACY
TAF AMD
KACY 152301Z 1523/1618 31015G25KT 6SM -SHRA BR SCT015 OVC025
      TEMPO 1523/1602 3SM SHRA BR BKN015
     FM160200 32022G35KT 5SM -SHRA BR OVC020
     FM160600 32018G28KT P6SM SCT020 BKN030
     FM160800 30012G22KT P6SM SCT050=



000
FTUS41 KPHI 152300 AAD
TAFABE
TAF AMD
KABE 152300Z 1523/1618 31011KT 6SM -SHRA SCT025 OVC035
      TEMPO 1523/1601 3SM SHRA OVC025
     FM160100 33020G35KT 3SM -SHRASN BR BKN015 OVC035
     FM160200 32018G28KT P6SM SCT040
     FM160600 33012G22KT P6SM FEW050=



000
FTUS41 KPHI 152200 AAC
TAFRDG
TAF AMD
KRDG 152259Z 1523/1618 32012KT 6SM -SHRA SCT015 OVC035
      TEMPO 1523/1601 4SM SHRA BKN015
     FM160100 33020G35KT 3SM -SHRASN BR BKN015 OVC035
     FM160200 32018G28KT P6SM SCT040
     FM160600 34012G22KT P6SM FEW050=



000
FTUS41 KPHI 152200 AAA
TAFMIV
TAF AMD
KMIV 152201Z 1522/1618 30012G20KT 6SM -SHRA BR SCT015 BKN025
      TEMPO 1522/1524 5SM -SHRA BKN015
     FM160000 32020G35KT 5SM -SHRA BR OVC020
     FM160500 32018G28KT P6SM SCT030
     FM160700 32012G22KT P6SM FEW050=



000
FTUS41 KPHI 152200 CCA
TAFACY
TAF COR
KACY 152200Z 1522/1618 31015G25KT 6SM -SHRA BR SCT005 OVC015
      TEMPO 1522/1602 3SM SHRA BR BKN005 OVC015
     FM160200 32022G35KT 5SM -SHRA BR OVC020
     FM160600 32018G28KT P6SM SCT020 BKN030
     FM160800 30012G22KT P6SM SCT050=



000
FTUS41 KPHI 152100 CCA
TAFRDG
TAF COR
KRDG 152159Z 1520/1618 32015G25KT 6SM -SHRA SCT015 OVC035
      TEMPO 1522/1524 4SM SHRA BKN015
     FM160000 33020G35KT 3SM -SHRASN BR BKN015 OVC035
     FM160200 32018G28KT P6SM SCT040
     FM160600 34012G22KT P6SM FEW050=



000
FTUS41 KPHI 152100 AAB
TAFRDG
TAF AMD
KRDG 152159Z 1522/1618 32015G25KT 6SM -SHRA SCT015 OVC035
      TEMPO 1523/1524 4SM SHRA BKN015
     FM160000 33020G35KT 3SM -SHRASN BR BKN015 OVC035
     FM160200 32018G28KT P6SM SCT040
     FM160600 34012G22KT P6SM FEW050=



000
FTUS41 KPHI 152100 AAB
TAFACY
TAF AMD
KACY 152157Z 1522/1618 31015G25KT 6SM -SHRA BR SCT005 OVC015
      TEMPO 1523/1602 3SM SHRA BR BKN005 OVC015
     FM160200 32022G35KT 5SM -SHRA BR OVC020
     FM160600 32018G28KT P6SM SCT020 BKN030
     FM160800 30012G22KT P6SM SCT050=



000
FTUS41 KPHI 152100 AAA
TAFACY
TAF AMD
KACY 152103Z 1521/1618 18020G30KT 6SM -SHRA BR SCT004 OVC045
      WS020/22060KT
      TEMPO 1521/1523 2SM SHRA BR BKN004 OVC045
     FM152300 30020G30KT 3SM -SHRA BR OVC015
     FM160100 32022G35KT 5SM -SHRA BR OVC020
     FM160600 32018G28KT P6SM SCT020 BKN030
     FM160800 30012G22KT P6SM SCT050=



000
FTUS41 KPHI 152100 AAB
TAFILG
TAF AMD
KILG 152102Z 1521/1618 32024G34KT 6SM -SHRA BR SCT015 OVC035
      TEMPO 1521/1524 3SM SHRA OVC015
     FM160000 32022G36KT 5SM -SHRA BR BKN015
     FM160300 32018G30KT P6SM BKN030
     FM160800 33012G22KT P6SM FEW050=



000
FTUS41 KPHI 152100 AAA
TAFPNE
TAF AMD
KPNE 152101Z 1521/1618 32015G25KT 6SM -SHRA SCT015 OVC025
      TEMPO 1521/1524 4SM SHRA OVC015
     FM160000 32022G36KT 3SM -SHRASN BR OVC010
     FM160300 32020G30KT P6SM SCT030
     FM160800 34015G25KT P6SM SCT050=



000
FTUS41 KPHI 152100 AAA
TAFTTN
TAF AMD
KTTN 152100Z 1521/1618 34015G25KT 5SM -SHRA SCT015 OVC035
      TEMPO 1521/1524 3SM SHRA OVC015
     FM160000 35020G35KT 3SM -SHRASN BR OVC020
     FM160300 35018G28KT P6SM SCT030
     FM160700 34012G22KT P6SM FEW050=



000
FTUS41 KPHI 152000 AAB
TAFPHL
TAF AMD
KPHL 152059Z 1521/1624 31015G25KT 6SM -SHRA BR SCT015 OVC035
      TEMPO 1521/1524 3SM SHRA OVC015
     FM160000 32020G30KT 5SM -SHRA BR OVC015
     FM160300 32020G30KT P6SM SCT030
     FM161000 34015G25KT P6SM FEW050=



000
FTUS41 KPHI 152000 AAC
TAFABE
TAF AMD
KABE 152045Z 1521/1618 31020G30KT 6SM -SHRA SCT025 OVC035
      TEMPO 1521/1524 3SM SHRA OVC025
     FM160000 33020G35KT 3SM -SHRASN BR BKN015 OVC035
     FM160200 32018G28KT P6SM SCT040
     FM160600 33012G22KT P6SM FEW050=



000
FTUS41 KPHI 152000 AAA
TAFRDG
TAF AMD
KRDG 152024Z 1520/1618 32015G25KT 6SM -SHRA SCT025 OVC035
      TEMPO 1520/1524 4SM SHRA BKN025
     FM160000 33020G35KT 3SM -SHRASN BR BKN015 OVC035
     FM160200 32018G28KT P6SM SCT040
     FM160600 34012G22KT P6SM FEW050=



000
FTUS41 KPHI 151900 AAA
TAFILG
TAF AMD
KILG 151947Z 1520/1618 30024G34KT 4SM -SHRA BR OVC025
      TEMPO 1520/1522 2SM +SHRA OVC009
     FM160000 32022G36KT 5SM -SHRA BR BKN015
     FM160300 32018G30KT P6SM BKN030
     FM160800 33012G22KT P6SM FEW050=



000
FTUS41 KPHI 151900 AAA
TAFPHL
TAF AMD
KPHL 151945Z 1520/1624 32022G36KT 4SM -SHRA BR OVC015
      TEMPO 1520/1521 2SM +SHRA OVC009
     FM160000 32020G30KT 5SM -SHRA BR OVC015
     FM160300 32020G30KT P6SM SCT030
     FM161000 34015G25KT P6SM FEW050=



000
FTUS41 KPHI 151800 AAB
TAFABE
TAF AMD
KABE 151852Z 1519/1618 31020G30KT 6SM -SHRA BKN015
      TEMPO 1519/1520 3SM SHRA BKN009
     FM160000 33020G35KT 3SM -SHRASN BR BKN015 OVC035
     FM160200 32018G28KT P6SM SCT040
     FM160600 33012G22KT P6SM FEW050=



000
FTUS41 KPHI 151800 AAA
TAFABE
TAF AMD
KABE 151803Z 1518/1618 20012G20KT 1 1/2SM +SHRA OVC015
     FM151900 31015G25KT 6SM -SHRA BKN015
      TEMPO 1519/1520 2SM +SHRA BKN009
     FM160000 33020G35KT 3SM -SHRASN BR BKN015 OVC035
     FM160200 32018G28KT P6SM SCT040
     FM160600 33012G22KT P6SM FEW050=



000
FTUS41 KPHI 151700
TAFPHL
TAF
KPHL 151733Z 1518/1624 20015G25KT 5SM -SHRA BR OVC015 WS020/23055KT
     FM152000 32022G36KT 4SM -SHRA BR OVC015
      TEMPO 1520/1521 2SM +SHRA OVC009
     FM160000 32020G30KT 5SM -SHRA BR OVC015
     FM160300 32020G30KT P6SM SCT030
     FM161000 34015G25KT P6SM FEW050=



000
FTUS41 KPHI 151700
TAFABE
TAF
KABE 151733Z 1518/1618 20012G20KT P6SM OVC035
     FM151900 31015G25KT 6SM -SHRA BKN015
      TEMPO 1519/1520 2SM +SHRA BKN009
     FM160000 33020G35KT 3SM -SHRASN BR BKN015 OVC035
     FM160200 32018G28KT P6SM SCT040
     FM160600 33012G22KT P6SM FEW050=



000
FTUS41 KPHI 151700
TAFRDG
TAF
KRDG 151733Z 1518/1618 31015G25KT 6SM -SHRA OVC015
      TEMPO 1518/1519 2SM +SHRA BKN009
     FM160000 33020G35KT 3SM -SHRASN BR BKN015 OVC035
     FM160200 32018G28KT P6SM SCT040
     FM160600 34012G22KT P6SM FEW050=



000
FTUS41 KPHI 151700
TAFILG
TAF
KILG 151733Z 1518/1618 17012G20KT 5SM -SHRA BR OVC015 WS020/22055KT
     FM152000 30018G30KT 4SM -SHRA BR OVC015
      TEMPO 1520/1522 2SM +SHRA OVC009
     FM160000 32022G36KT 5SM -SHRA BR BKN015
     FM160300 32018G30KT P6SM BKN030
     FM160800 33012G22KT P6SM FEW050=



000
FTUS41 KPHI 151700
TAFTTN
TAF
KTTN 151733Z 1518/1618 20015G25KT 5SM -SHRA BR OVC010 WS020/23055KT
     FM152000 32018G30KT 5SM -SHRA OVC015
      TEMPO 1520/1521 2SM +SHRA OVC007
     FM160000 35020G35KT 3SM -SHRASN BR OVC020
     FM160300 35018G28KT P6SM SCT030
     FM160700 34012G22KT P6SM FEW050=



000
FTUS41 KPHI 151700
TAFACY
TAF
KACY 151733Z 1518/1618 18020G30KT 6SM -SHRA BR OVC045 WS020/22060KT
      TEMPO 1518/1522 2SM SHRA BR BKN007 OVC045
     FM152200 30020G30KT 3SM -SHRA BR OVC015
     FM160100 32022G35KT 5SM -SHRA BR OVC020
     FM160600 32018G28KT P6SM SCT020 BKN030
     FM160800 30012G22KT P6SM SCT050=



000
FTUS41 KPHI 151700
TAFMIV
TAF
KMIV 151733Z 1518/1618 18012G20KT 6SM -SHRA BR OVC100 WS020/22060KT
      TEMPO 1518/1521 5SM -SHRA BKN015 OVC100
     FM152100 29018G28KT 3SM -SHRA BR OVC015
     FM160000 32020G35KT 5SM -SHRA BR OVC020
     FM160500 32018G28KT P6SM SCT030
     FM160700 32012G22KT P6SM FEW050=



000
FTUS41 KPHI 151700
TAFPNE
TAF
KPNE 151733Z 1518/1618 20015G25KT 6SM -SHRA OVC015 WS020/23055KT
     FM152000 30018G30KT 6SM -SHRA OVC015
      TEMPO 1520/1521 2SM +SHRA OVC009
     FM160000 32022G36KT 3SM -SHRASN BR OVC010
     FM160300 32020G30KT P6SM SCT030
     FM160800 34015G25KT P6SM SCT050=



000
FTUS41 KPHI 151500 AAD
TAFPHL
TAF AMD
KPHL 151556Z 1516/1618 17015G25KT P6SM OVC015
      TEMPO 1516/1518 20015G25KT 1 1/2SM +SHRA OVC009
     FM151800 20015G25KT 5SM -SHRA BR OVC015 WS020/23055KT
     FM152000 30018G30KT 3SM +SHRA BR OVC009
     FM152100 32022G36KT 3SM -SHRA BR OVC015
     FM160300 32020G30KT P6SM SCT030
     FM161200 34015G25KT P6SM FEW050=



000
FTUS41 KPHI 151500 AAA
TAFMIV
TAF AMD
KMIV 151503Z 1515/1612 18014G24KT 6SM -SHRA BR OVC004 WS020/22060KT
      TEMPO 1516/1518 2SM +SHRA
     FM152100 29018G28KT 1SM +SHRA BR OVC006
     FM160000 32020G35KT 3SM -SHRA BR BKN008 OVC020
     FM160300 32018G28KT P6SM BKN030
     FM160500 32012G22KT P6SM SCT050=



000
FTUS41 KPHI 151500 AAB
TAFTTN
TAF AMD
KTTN 151500Z 1515/1612 20015G25KT 4SM -SHRA BR OVC015 WS020/23055KT
      TEMPO 1515/1518 2SM +SHRA OVC009
     FM152000 32018G30KT 1SM +SHRA BR OVC007
     FM160000 35020G35KT 3SM -SHRA BR BKN009 OVC025
     FM160300 35018G28KT P6SM BKN030
     FM160500 34012G22KT P6SM SCT050=



000
FTUS41 KPHI 151400 AAA
TAFACY
TAF AMD
KACY 151459Z 1515/1612 18016G26KT 3SM -SHRA BR OVC004 WS020/22060KT
      TEMPO 1515/1519 2SM +SHRA BR
     FM152100 29020G30KT 1SM +SHRA BR OVC006
     FM160000 32022G35KT 3SM -SHRA BR BKN009 OVC020
     FM160300 32018G28KT P6SM SCT020 BKN030
     FM160500 30012G22KT P6SM SCT050=



000
FTUS41 KPHI 151400 AAC
TAFPHL
TAF AMD
KPHL 151443Z 1515/1618 17015G25KT P6SM OVC015
      TEMPO 1515/1518 20015G25KT 1 1/2SM +SHRA OVC009
     FM151800 20015G25KT 5SM -SHRA BR OVC009 WS020/23055KT
     FM152000 30018G30KT 3SM +SHRA BR OVC006
     FM160000 32022G36KT 3SM -SHRA BR BKN009 OVC025
     FM160300 32020G30KT P6SM BKN030
     FM160500 32015G25KT P6SM SCT050=



000
FTUS41 KPHI 151400 AAA
TAFABE
TAF AMD
KABE 151431Z 1515/1612 16012G22KT 3SM SHRA BR OVC015 WS020/22045KT
      TEMPO 1515/1516 2SM +SHRA OVC009
     FM151600 20015G25KT P6SM OVC035
     FM151900 29015G25KT 1SM +SHRA BR OVC008
     FM152300 33020G35KT 3SM -SHRASN BR BKN015 OVC035
     FM160200 32018G28KT P6SM BKN040
     FM160400 30012G22KT P6SM SCT050=



000
FTUS41 KPHI 151400 AAA
TAFRDG
TAF AMD
KRDG 151429Z 1514/1612 20012G22KT P6SM -SHRA OVC035 WS020/22045KT
      TEMPO 1515/1518 5SM -SHRA BKN015 OVC030
     FM151900 29015G25KT 1SM +SHRA BR OVC008
     FM152300 32020G35KT 3SM -SHRASN BR BKN015 OVC035
     FM160200 32018G28KT P6SM BKN040
     FM160400 30012G22KT P6SM SCT050=



000
FTUS41 KPHI 151400 AAB
TAFILG
TAF AMD
KILG 151423Z 1514/1612 16012G20KT P6SM OVC015 WS020/19045KT
      TEMPO 1514/1517 1SM +SHRA BR OVC004
     FM151700 18015G25KT 5SM -SHRA BR OVC007 WS020/22055KT
     FM152000 30018G30KT 1SM +SHRA BR OVC006
     FM160000 32022G36KT 3SM -SHRA BR BKN009 OVC025
     FM160300 32018G30KT P6SM BKN030
     FM160500 33012G22KT P6SM SCT050=



000
FTUS41 KPHI 151400 AAB
TAFPNE
TAF AMD
KPNE 151421Z 1514/1612 17012G18KT P6SM OVC015 WS020/19045KT
      TEMPO 1515/1518 20015G25KT 1SM +SHRA BR OVC009
     FM151800 20015G25KT 6SM -SHRA OVC009 WS020/23055KT
     FM152000 30018G30KT 1SM +SHRA BR OVC009
     FM160000 32022G36KT 3SM -SHRA BR BKN009 OVC025
     FM160300 32020G30KT P6SM BKN030
     FM160500 32015G25KT P6SM SCT050=



000
FTUS41 KPHI 151400 AAB
TAFPHL
TAF AMD
KPHL 151419Z 1514/1618 17015G25KT P6SM OVC015
      TEMPO 1515/1518 20015G25KT 1SM +SHRA OVC009
     FM151800 20015G25KT 5SM -SHRA BR OVC009 WS020/23055KT
     FM152000 30018G30KT 3SM +SHRA BR OVC006
     FM160000 32022G36KT 3SM -SHRA BR BKN009 OVC025
     FM160300 32020G30KT P6SM BKN030
     FM160500 32015G25KT P6SM SCT050=



000
FTUS41 KPHI 151400 AAA
TAFTTN
TAF AMD
KTTN 151409Z 1514/1612 18012G18KT P6SM OVC008 WS020/19045KT
      TEMPO 1514/1515 4SM -SHRA BR OVC006
     FM151500 20015G25KT 3SM SHRA BR OVC005 WS020/23055KT
     FM152000 32018G30KT 1SM +SHRA BR OVC007
     FM160000 35020G35KT 3SM -SHRA BR BKN009 OVC025
     FM160300 35018G28KT P6SM BKN030
     FM160500 34012G22KT P6SM SCT050=



000
FTUS41 KPHI 151200 AAA
TAFILG
TAF AMD
KILG 151212Z 1512/1612 16012G20KT P6SM OVC015 WS020/19045KT
      TEMPO 1513/1515 4SM -SHRA BR OVC008
     FM151500 18015G25KT 3SM SHRA BR OVC005 WS020/22055KT
     FM152000 30018G30KT 1SM +SHRA BR OVC006
     FM160000 32022G36KT 3SM -SHRA BR BKN009 OVC025
     FM160300 32018G30KT P6SM BKN030
     FM160500 33012G22KT P6SM SCT050=



000
FTUS41 KPHI 151200 AAA
TAFPNE
TAF AMD
KPNE 151210Z 1512/1612 17012G18KT P6SM OVC015 WS020/19045KT
      TEMPO 1513/1515 4SM -SHRA BR OVC007
     FM151500 20015G25KT 3SM SHRA BR OVC006 WS020/23055KT
     FM152000 30018G30KT 1SM +SHRA BR OVC009
     FM160000 32022G36KT 3SM -SHRA BR BKN009 OVC025
     FM160300 32020G30KT P6SM BKN030
     FM160500 32015G25KT P6SM SCT050=



000
FTUS41 KPHI 151200 AAA
TAFPHL
TAF AMD
KPHL 151209Z 1512/1618 17012G20KT P6SM OVC015 WS020/19045KT
      TEMPO 1513/1515 4SM -SHRA BR OVC008
     FM151500 20015G25KT 3SM SHRA BR OVC006 WS020/23055KT
     FM152000 30018G30KT 1SM +SHRA BR OVC006
     FM160000 32022G36KT 3SM -SHRA BR BKN009 OVC025
     FM160300 32020G30KT P6SM BKN030
     FM160500 32015G25KT P6SM SCT050=



000
FTUS41 KPHI 151100
TAFPHL
TAF
KPHL 151120Z 1512/1618 17012G20KT P6SM VCSH BKN009 OVC025
      WS020/19045KT
      TEMPO 1512/1514 4SM -SHRA BR OVC008
     FM151400 20015G25KT 3SM SHRA BR OVC006 WS020/23055KT
     FM152000 30018G30KT 1SM +SHRA BR OVC006
     FM160000 32022G36KT 3SM -SHRA BR BKN009 OVC025
     FM160300 32020G30KT P6SM BKN030
     FM160500 32015G25KT P6SM SCT050=



000
FTUS41 KPHI 151100
TAFILG
TAF
KILG 151120Z 1512/1612 16012G20KT P6SM VCSH SCT004 OVC015
      WS020/19045KT
      TEMPO 1512/1514 4SM -SHRA BR OVC008
     FM151400 18015G25KT 3SM SHRA BR OVC005 WS020/22055KT
     FM152000 30018G30KT 1SM +SHRA BR OVC006
     FM160000 32022G36KT 3SM -SHRA BR BKN009 OVC025
     FM160300 32018G30KT P6SM BKN030
     FM160500 33012G22KT P6SM SCT050=



000
FTUS41 KPHI 151100
TAFMIV
TAF
KMIV 151120Z 1512/1612 16012G20KT P6SM VCSH OVC004 WS020/19050KT
      TEMPO 1513/1515 4SM -SHRA BR OVC004
     FM151500 18014G24KT 3SM SHRA BR OVC006 WS020/22060KT
     FM152100 29018G28KT 1SM +SHRA BR OVC006
     FM160000 32020G35KT 3SM -SHRA BR BKN008 OVC020
     FM160300 32018G28KT P6SM BKN030
     FM160500 32012G22KT P6SM SCT050=



000
FTUS41 KPHI 151100
TAFTTN
TAF
KTTN 151120Z 1512/1612 18012G18KT P6SM OVC008 WS020/19045KT
      TEMPO 1512/1514 4SM -SHRA BR OVC006
     FM151400 20015G25KT 3SM SHRA BR OVC005 WS020/23055KT
     FM152000 32018G30KT 1SM +SHRA BR OVC007
     FM160000 35020G35KT 3SM -SHRA BR BKN009 OVC025
     FM160300 35018G28KT P6SM BKN030
     FM160500 34012G22KT P6SM SCT050=



000
FTUS41 KPHI 151100
TAFPNE
TAF
KPNE 151120Z 1512/1612 17012G18KT P6SM VCSH OVC010 WS020/19045KT
      TEMPO 1512/1514 4SM -SHRA BR OVC007
     FM151400 20015G25KT 3SM SHRA BR OVC006 WS020/23055KT
     FM152000 30018G30KT 1SM +SHRA BR OVC009
     FM160000 32022G36KT 3SM -SHRA BR BKN009 OVC025
     FM160300 32020G30KT P6SM BKN030
     FM160500 32015G25KT P6SM SCT050=



000
FTUS41 KPHI 151100
TAFRDG
TAF
KRDG 151120Z 1512/1612 18010G16KT 6SM -SHRA BR OVC015 WS020/22040KT
      TEMPO 1512/1514 2SM SHRA BR OVC008
     FM151400 16012G22KT 3SM SHRA BR OVC006 WS020/22045KT
     FM151900 29015G25KT 1SM +SHRA BR OVC008
     FM152300 32020G35KT 3SM -SHRASN BR BKN015 OVC035
     FM160200 32018G28KT P6SM BKN040
     FM160400 30012G22KT P6SM SCT050=



000
FTUS41 KPHI 151100
TAFACY
TAF
KACY 151120Z 1512/1612 18012G22KT 4SM -SHRA BR OVC004 WS020/19050KT
      TEMPO 1513/1515 2SM -SHRA BR OVC008
     FM151500 18016G26KT 3SM SHRA BR OVC004 WS020/22060KT
     FM152100 29020G30KT 1SM +SHRA BR OVC006
     FM160000 32022G35KT 3SM -SHRA BR BKN009 OVC020
     FM160300 32018G28KT P6SM SCT020 BKN030
     FM160500 30012G22KT P6SM SCT050=



000
FTUS41 KPHI 151100
TAFABE
TAF
KABE 151120Z 1512/1612 18010G16KT 6SM -SHRA BR OVC015 WS020/22040KT
      TEMPO 1512/1514 2SM -SHRA BR OVC008
     FM151400 16012G22KT 3SM SHRA BR OVC006 WS020/22045KT
     FM151900 29015G25KT 1SM +SHRA BR OVC008
     FM152300 33020G35KT 3SM -SHRASN BR BKN015 OVC035
     FM160200 32018G28KT P6SM BKN040
     FM160400 30012G22KT P6SM SCT050=



000
FTUS41 KPHI 151000 AAB
TAFILG
TAF AMD
KILG 151033Z 1511/1606 16010G16KT P6SM VCSH BKN005 OVC015
      WS020/19045KT
      TEMPO 1511/1514 4SM -SHRA BR SCT004 OVC015
     FM151400 18015G25KT 3SM SHRA BR OVC005 WS020/22055KT
     FM152000 29018G30KT 1SM +SHRA BR OVC006
     FM160000 32022G36KT 3SM -SHRA BR OVC008
     FM160300 32018G30KT P6SM OVC025
     FM160500 32015G25KT P6SM SCT040=



000
FTUS41 KPHI 150900 AAA
TAFILG
TAF AMD
KILG 150943Z 1510/1606 16010G16KT P6SM VCSH BKN005 OVC015
      WS020/19045KT
      TEMPO 1511/1514 4SM -SHRA BR OVC006
     FM151400 18015G25KT 3SM SHRA BR OVC005 WS020/22055KT
     FM152000 29018G30KT 1SM +SHRA BR OVC006
     FM160000 32022G36KT 3SM -SHRA BR OVC008
     FM160300 32018G30KT P6SM OVC025
     FM160500 32015G25KT P6SM SCT040=



000
FTUS41 KPHI 150900 AAB
TAFPHL
TAF AMD
KPHL 150942Z 1510/1612 17010G18KT P6SM VCSH BKN009 OVC025
      WS020/19045KT
      TEMPO 1511/1514 4SM -SHRA BR OVC008
     FM151400 20015G25KT 3SM SHRA BR OVC006 WS020/23055KT
     FM152000 29018G30KT 1SM +SHRA BR OVC006
     FM160000 32022G36KT 3SM -SHRA BR OVC008
     FM160300 32020G30KT P6SM OVC025
     FM160500 32015G25KT P6SM SCT040=



000
FTUS41 KPHI 150800 AAA
TAFPNE
TAF AMD
KPNE 150842Z 1509/1606 18010G16KT P6SM VCSH BKN020 OVC050
      WS020/19045KT
      TEMPO 1510/1514 4SM -SHRA BR BKN008 OVC020
     FM151400 20015G25KT 3SM SHRA BR OVC008 WS020/23055KT
     FM152000 29018G30KT 1SM +SHRA BR OVC006
     FM160000 32022G36KT 3SM -SHRA BR OVC008
     FM160300 32020G30KT P6SM OVC025
     FM160500 32015G25KT P6SM SCT040=



000
FTUS41 KPHI 150800 AAB
TAFMIV
TAF AMD
KMIV 150841Z 1509/1606 16008G15KT P6SM VCSH OVC005 WS020/19050KT
      TEMPO 1510/1513 4SM -SHRA BR OVC004
     FM151400 18015G25KT 3SM SHRA BR OVC006 WS020/22060KT
     FM152100 29018G30KT 1SM +SHRA BR OVC006
     FM160100 32022G36KT 3SM -SHRA BR OVC008
     FM160300 32018G30KT P6SM OVC025
     FM160500 32012G22KT P6SM SCT040=



000
FTUS41 KPHI 150800 AAA
TAFRDG
TAF AMD
KRDG 150840Z 1509/1606 18010G16KT P6SM VCSH BKN020 OVC040
      TEMPO 1510/1512 3SM -SHRA BR SCT006 OVC015
     FM151200 16012G22KT 3SM SHRA BR OVC006 WS020/22045KT
     FM151900 29015G25KT 1SM +SHRA BR OVC008
     FM152300 32020G35KT 3SM -SHRASN BR BKN008 OVC025
     FM160200 32018G28KT P6SM BKN030
     FM160400 30015G25KT P6SM SCT040=



000
FTUS41 KPHI 150800 AAA
TAFPHL
TAF AMD
KPHL 150829Z 1508/1612 17010G18KT P6SM VCSH SCT020 OVC060
      WS020/19045KT
      TEMPO 1510/1514 4SM -SHRA BR SCT006 OVC015
     FM151400 20015G25KT 3SM SHRA BR OVC008 WS020/23055KT
     FM152000 29018G30KT 1SM +SHRA BR OVC006
     FM160000 32022G36KT 3SM -SHRA BR OVC008
     FM160300 32020G30KT P6SM OVC025
     FM160500 32015G25KT P6SM SCT040=



000
FTUS41 KPHI 150600 AAA
TAFMIV
TAF AMD
KMIV 150618Z 1506/1606 18010G16KT P6SM BKN005 OVC060
     FM150800 16012G18KT 6SM -SHRA OVC008 WS020/19050KT
      TEMPO 1509/1513 4SM -SHRA BR OVC005
     FM151400 18015G25KT 3SM SHRA BR OVC006 WS020/22060KT
     FM152100 29018G30KT 1SM +SHRA BR OVC006
     FM160100 32022G36KT 3SM -SHRA BR OVC008
     FM160300 32018G30KT P6SM OVC025
     FM160500 32012G22KT P6SM SCT040=



000
FTUS41 KPHI 150500
TAFABE
TAF
KABE 150536Z 1506/1606 18012G16KT P6SM SCT025 OVC060
     FM150800 16012KT 6SM -SHRA BKN010 OVC030 WS020/19040KT
      TEMPO 1508/1512 3SM -SHRA BR SCT010 OVC020
     FM151200 16012G22KT 3SM SHRA BR OVC006 WS020/22045KT
     FM151900 29015G25KT 1SM +SHRA BR OVC008
     FM152300 32020G35KT 3SM -SHRASN BR BKN008 OVC025
     FM160200 32018G28KT P6SM BKN030
     FM160400 30015G25KT P6SM SCT040=



000
FTUS41 KPHI 150500
TAFPHL
TAF
KPHL 150536Z 1506/1612 19012G20KT P6SM SCT025 OVC080
     FM150800 16012G22KT 6SM -SHRA BKN010 OVC030 WS020/19045KT
      TEMPO 1509/1513 4SM -SHRA BR SCT010 OVC020
     FM151400 20015G25KT 3SM SHRA BR OVC008 WS020/23055KT
     FM152000 29018G30KT 1SM +SHRA BR OVC006
     FM160000 32022G36KT 3SM -SHRA BR OVC008
     FM160300 32020G30KT P6SM OVC025
     FM160500 32015G25KT P6SM SCT040=



000
FTUS41 KPHI 150500
TAFPNE
TAF
KPNE 150536Z 1506/1606 18012G18KT P6SM SCT025 OVC070
     FM150900 16012G20KT 6SM -SHRA BKN010 OVC030 WS020/19045KT
      TEMPO 1509/1513 4SM -SHRA BR SCT010 OVC020
     FM151400 20015G25KT 3SM SHRA BR OVC008 WS020/23055KT
     FM152000 29018G30KT 1SM +SHRA BR OVC006
     FM160000 32022G36KT 3SM -SHRA BR OVC008
     FM160300 32020G30KT P6SM OVC025
     FM160500 32015G25KT P6SM SCT040=



000
FTUS41 KPHI 150500
TAFRDG
TAF
KRDG 150536Z 1506/1606 18010G16KT P6SM VCSH SCT025 OVC060
     FM150700 16012KT 6SM -SHRA BKN010 OVC030 WS020/19040KT
      TEMPO 1508/1512 3SM -SHRA BR SCT010 OVC020
     FM151200 16012G22KT 3SM SHRA BR OVC006 WS020/22045KT
     FM151900 29015G25KT 1SM +SHRA BR OVC008
     FM152300 32020G35KT 3SM -SHRASN BR BKN008 OVC025
     FM160200 32018G28KT P6SM BKN030
     FM160400 30015G25KT P6SM SCT040=



000
FTUS41 KPHI 150500
TAFACY
TAF
KACY 150536Z 1506/1606 19018G28KT P6SM OVC004
     FM150800 17015G25KT 6SM -SHRA BR OVC005 WS020/19055KT
      TEMPO 1508/1512 3SM -SHRA BR OVC010
     FM151400 18018G28KT 3SM SHRA BR OVC008 WS020/22065KT
     FM152100 29020G30KT 1SM +SHRA BR OVC006
     FM160100 32022G35KT 3SM -SHRA BR OVC008
     FM160300 32018G28KT P6SM OVC025
     FM160500 30012G22KT P6SM SCT040=



000
FTUS41 KPHI 150500
TAFMIV
TAF
KMIV 150536Z 1506/1606 18010G16KT P6SM SCT025 OVC080
     FM150800 16012G18KT 6SM -SHRA BKN010 OVC030 WS020/19050KT
      TEMPO 1509/1513 4SM -SHRA BR SCT010 OVC020
     FM151400 18015G25KT 3SM SHRA BR OVC008 WS020/22060KT
     FM152100 29018G30KT 1SM +SHRA BR OVC006
     FM160100 32022G36KT 3SM -SHRA BR OVC008
     FM160300 32018G30KT P6SM OVC025
     FM160500 32012G22KT P6SM SCT040=



000
FTUS41 KPHI 150500
TAFTTN
TAF
KTTN 150536Z 1506/1606 19010G16KT P6SM SCT025 OVC060
     FM150900 19012KT P6SM -SHRA BKN010 OVC030 WS020/19045KT
      TEMPO 1509/1513 4SM -SHRA BR SCT010 OVC020
     FM151400 20015G25KT 3SM SHRA BR OVC008 WS020/23055KT
     FM152000 29018G30KT 1SM +SHRA BR OVC006
     FM160000 33020G35KT 3SM -SHRA BR OVC008
     FM160300 34018G28KT P6SM OVC025
     FM160500 33015G25KT P6SM SCT040=



000
FTUS41 KPHI 150500
TAFILG
TAF
KILG 150536Z 1506/1606 16010G16KT P6SM SCT025 OVC080
     FM150800 16012G20KT 6SM -SHRA BKN010 OVC030 WS020/19045KT
      TEMPO 1509/1513 4SM -SHRA BR SCT010 OVC020
     FM151400 18015G25KT 3SM SHRA BR OVC008 WS020/22055KT
     FM152000 29018G30KT 1SM +SHRA BR OVC006
     FM160000 32022G36KT 3SM -SHRA BR OVC008
     FM160300 32018G30KT P6SM OVC025
     FM160500 32015G25KT P6SM SCT040=



000
FTUS41 KPHI 150400 AAA
TAFABE
TAF AMD
KABE 150410Z 1504/1524 18012G16KT P6SM SCT035 BKN100
     FM150600 17012KT 6SM -SHRA BR BKN025 OVC035
     FM150800 13012G18KT 4SM -SHRA BR OVC012
     FM151500 17014G24KT 2SM SHRA BR OVC010 WS020/19055KT
     FM151800 19015G25KT 2SM -SHRA BR OVC008
     FM152000 25017G25KT 2SM -SHRA BR OVC010
     FM152200 31018G26KT 4SM -SHRA BR OVC015=



000
FTUS41 KPHI 150400 AAA
TAFMIV
TAF AMD
KMIV 150410Z 1504/1524 18010G16KT P6SM SCT025 BKN150
     FM150600 15012KT P6SM OVC015
     FM151000 17015G25KT 4SM -SHRA BR BKN008 OVC025
     FM151400 18018G28KT 2SM SHRA OVC008 WS020/19065KT
     FM152300 32019G29KT 2SM -SHRA BR OVC008=



000
FTUS41 KPHI 150400 AAA
TAFRDG
TAF AMD
KRDG 150409Z 1504/1524 18012G16KT P6SM SCT035 BKN100
     FM150600 18012KT 5SM -SHRA BR BKN025 OVC035
     FM151200 16012G22KT 3SM -SHRA BR OVC010 WS020/19045KT
     FM151600 21012G22KT 2SM SHRA BR OVC012 WS020/20055KT
     FM151800 20010G15KT 2SM -SHRA BR OVC008
     FM152000 27011G20KT 2SM -SHRA BR OVC015
     FM152200 30017G25KT 4SM -SHRA BR OVC020=



000
FTUS41 KPHI 150400 AAA
TAFPHL
TAF AMD
KPHL 150408Z 1504/1606 19012G20KT P6SM SCT025 BKN150
     FM150900 16012G22KT 4SM -SHRA BR BKN012 OVC025
     FM151400 22018G28KT 2SM SHRA BR OVC009 WS020/19060KT
     FM152100 26014G25KT 2SM SHRA BR OVC008
     FM152300 31014G23KT 2SM -SHRA BR OVC008
     FM160200 32020KT P6SM OVC025=



000
FTUS41 KPHI 150300 AAB
TAFACY
TAF AMD
KACY 150318Z 1503/1524 19018G28KT P6SM BKN006
      TEMPO 1503/1505 SCT006 BKN010
     FM150500 17015G25KT P6SM OVC008
     FM151000 17016G28KT 4SM -SHRA BR BKN008 OVC025
     FM151400 18022G32KT 2SM SHRA OVC008 WS020/19065KT
     FM152300 31020G30KT 2SM -SHRA BR OVC009=



000
FTUS41 KPHI 150200 CCA
TAFACY
TAF COR
KACY 150212Z 1500/1524 19018G28KT P6SM SCT007 BKN020
      TEMPO 1502/1505 BKN007
     FM150500 17015G25KT P6SM OVC010
     FM151000 17016G28KT 4SM -SHRA BR BKN008 OVC025
     FM151400 18022G32KT 2SM SHRA OVC008 WS020/19065KT
     FM152300 31020G30KT 2SM -SHRA BR OVC009=



000
FTUS41 KPHI 150200 AAA
TAFACY
TAF AMD
KACY 150211Z 1502/1524 18015KT P6SM SCT007 OVC020
      TEMPO 1502/1505 OVC007
     FM150500 17015G25KT P6SM OVC010
     FM151000 17016G28KT 4SM -SHRA BR BKN008 OVC025
     FM151400 18022G32KT 2SM SHRA OVC008 WS020/19065KT
     FM152300 31020G30KT 2SM -SHRA BR OVC009=



000
FTUS41 KPHI 142300 RRA
TAFPHL
TAF
KPHL 142342Z 1500/1606 18014KT P6SM SCT030 OVC060
     FM150400 19012KT P6SM SCT012 OVC030
     FM150900 16012G20KT 4SM -SHRA BR BKN012 OVC025
     FM151400 22018G28KT 2SM SHRA BR OVC009 WS020/19060KT
     FM152100 26014G25KT 2SM SHRA BR OVC008
     FM152300 31014G23KT 2SM -SHRA BR OVC008
     FM160200 32020KT P6SM OVC025=



000
FTUS41 KPHI 142300 RRA
TAFTTN
TAF
KTTN 142342Z 1500/1524 20015G25KT P6SM SCT035 OVC120
     FM150500 18012KT P6SM SCT015 OVC030
     FM150900 16012G20KT 4SM -SHRA BR BKN012 OVC025
     FM151400 22018G28KT 2SM SHRA BR OVC009 WS020/19060KT
     FM152100 26014G25KT 2SM SHRA BR OVC008
     FM152300 33014G23KT 2SM -SHRA BR OVC008=



000
FTUS41 KPHI 142300 RRA
TAFPNE
TAF
KPNE 142342Z 1500/1524 20015G25KT P6SM SCT030 OVC060
     FM150500 18012KT P6SM SCT015 OVC030
     FM150900 16012G20KT 4SM -SHRA BR BKN012 OVC025
     FM151400 22018G28KT 2SM SHRA BR OVC009 WS020/19060KT
     FM152100 26014G25KT 2SM SHRA BR OVC008
     FM152300 31014G23KT 2SM -SHRA BR OVC008=



000
FTUS41 KPHI 142300 RRA
TAFMIV
TAF
KMIV 142342Z 1500/1524 20012G22KT P6SM SCT040 BKN200
     FM150100 17010KT P6SM SCT020 OVC050
     FM150400 15012KT P6SM OVC015
     FM151000 17015G25KT 4SM -SHRA BR BKN008 OVC025
     FM151400 18018G28KT 2SM SHRA OVC008 WS020/19065KT
     FM152300 32019G29KT 2SM -SHRA BR OVC008=



000
FTUS41 KPHI 142300 RRA
TAFRDG
TAF
KRDG 142342Z 1500/1524 18014KT P6SM SCT035 OVC080
     FM150400 18012KT 5SM -SHRA BR BKN015 OVC035
     FM151200 16012G22KT 3SM -SHRA BR OVC010 WS020/19045KT
     FM151600 21012G22KT 2SM SHRA BR OVC012 WS020/20055KT
     FM151800 20010G15KT 2SM -SHRA BR OVC008
     FM152000 27011G20KT 2SM -SHRA BR OVC015
     FM152200 30017G25KT 4SM -SHRA BR OVC020=



000
FTUS41 KPHI 142300 RRA
TAFILG
TAF
KILG 142342Z 1500/1524 18014KT P6SM SCT030 OVC060
     FM150900 16012G20KT 4SM -SHRA BR BKN012 OVC025
     FM151400 22018G28KT 2SM SHRA BR OVC009 WS020/19060KT
     FM152100 26014G25KT 2SM SHRA BR OVC008
     FM152300 31014G23KT 2SM -SHRA BR OVC008=



000
FTUS41 KPHI 142300 RRA
TAFABE
TAF
KABE 142342Z 1500/1524 18014KT P6SM SCT030 OVC080
     FM150400 17012KT 6SM -SHRA BR BKN015 OVC035
     FM150800 13012G18KT 4SM -SHRA BR OVC012
     FM151500 17014G24KT 2SM SHRA BR OVC010 WS020/19055KT
     FM151800 19015G25KT 2SM -SHRA BR OVC008
     FM152000 25017G25KT 2SM -SHRA BR OVC010
     FM152200 31018G26KT 4SM -SHRA BR OVC015=



000
FTUS41 KPHI 142300 RRA
TAFACY
TAF
KACY 142342Z 1500/1524 19018G28KT P6SM SCT040 BKN200
     FM150100 18015KT P6SM SCT020 OVC050
     FM150400 17015G25KT P6SM OVC015
     FM151000 17016G28KT 4SM -SHRA BR BKN008 OVC025
     FM151400 18022G32KT 2SM SHRA OVC008 WS020/19065KT
     FM152300 31020G30KT 2SM -SHRA BR OVC009=



000
FTUS41 KPHI 142000 AAA
TAFPHL
TAF AMD
KPHL 142058Z 1421/1524 20019G29KT P6SM BKN050 OVC200
     FM150000 18014KT P6SM SCT030 OVC060
     FM150400 19012KT P6SM SCT012 OVC030
     FM150900 19015G22KT 5SM -SHRA BR BKN012 OVC025
     FM151400 19017G27KT 2SM SHRA BR OVC012 WS020/19060KT
     FM152100 29015G25KT 4SM -SHRA BR SCT012 OVC025=



000
FTUS41 KPHI 141700
TAFILG
TAF
KILG 141720Z 1418/1518 22020G30KT P6SM BKN045 OVC200
     FM150000 18014KT P6SM SCT030 OVC060
     FM150400 16012KT P6SM VCSH SCT012 OVC030
     FM150900 15020G30KT 5SM -SHRA BR BKN012 OVC025
     FM151400 17020G30KT 2SM SHRA BR OVC012 WS020/19060KT=



000
FTUS41 KPHI 141700
TAFABE
TAF
KABE 141720Z 1418/1518 19018G28KT P6SM BKN050 OVC200
     FM150000 18014KT P6SM SCT030 OVC080
     FM150400 17012KT 6SM -SHRA BR BKN015 OVC035
     FM150800 13012G18KT 4SM -SHRA BR OVC012
     FM151500 17014G24KT 2SM SHRA BR OVC010 WS020/19055KT=



000
FTUS41 KPHI 141700
TAFMIV
TAF
KMIV 141720Z 1418/1518 20012G22KT P6SM SCT040 BKN200
     FM150100 17010KT P6SM SCT020 OVC050
     FM150400 15012KT P6SM VCSH OVC025
     FM151000 17015G25KT 4SM -SHRA BR BKN010 OVC025
     FM151400 18018G28KT 2SM SHRA OVC010 WS020/19065KT=



000
FTUS41 KPHI 141700
TAFPNE
TAF
KPNE 141720Z 1418/1518 21017G27KT P6SM BKN040 OVC200
     FM142300 20015G25KT P6SM SCT030 OVC060
     FM150500 19012KT P6SM VCSH SCT015 OVC030
     FM150900 15015G22KT 5SM -SHRA BR BKN012 OVC025
     FM151400 20016G26KT 2SM SHRA BR OVC012 WS020/19060KT=



000
FTUS41 KPHI 141700
TAFTTN
TAF
KTTN 141720Z 1418/1518 20020G30KT P6SM SCT040 BKN080
     FM142300 20015G25KT P6SM SCT035 OVC120
     FM150500 18012KT P6SM VCSH SCT015 OVC030
     FM150900 16012G20KT 4SM -SHRA BR BKN012 OVC025
     FM151400 22018G28KT 3SM SHRA BR OVC012 WS020/19060KT=



000
FTUS41 KPHI 141700
TAFACY
TAF
KACY 141720Z 1418/1518 19018G28KT P6SM SCT040 BKN200
     FM150100 18015KT P6SM SCT020 OVC050
     FM150400 17015G25KT P6SM VCSH OVC025
     FM151000 17016G28KT 4SM -SHRA BR BKN010 OVC025
     FM151400 18022G32KT 2SM SHRA OVC010 WS020/19065KT=



000
FTUS41 KPHI 141700
TAFPHL
TAF
KPHL 141720Z 1418/1524 20019G29KT P6SM BKN040 OVC200
     FM150000 18014KT P6SM SCT030 OVC060
     FM150400 19012KT P6SM VCSH SCT012 OVC030
     FM150900 19015G22KT 5SM -SHRA BR BKN012 OVC025
     FM151400 19017G27KT 2SM SHRA BR OVC012 WS020/19060KT
     FM152100 29015G25KT 4SM -SHRA BR SCT012 OVC025=



000
FTUS41 KPHI 141700
TAFRDG
TAF
KRDG 141720Z 1418/1518 18015G25KT P6SM BKN045 OVC120
     FM150000 18014KT P6SM SCT035 OVC080
     FM150400 18012KT 5SM -SHRA BR BKN015 OVC035
     FM151200 16012G22KT 3SM -SHRA BR OVC010 WS020/19045KT
     FM151600 21012G22KT 2SM SHRA BR OVC012 WS020/20055KT=



000
FTUS41 KPHI 141600 AAB
TAFMIV
TAF AMD
KMIV 141608Z 1416/1512 21012G22KT P6SM SCT025 OVC200
      TEMPO 1416/1418 BKN025
     FM150000 17010KT P6SM SCT025 BKN100
     FM150400 15012KT P6SM VCSH SCT015 OVC040
     FM150800 17012G20KT 4SM -SHRA BR BKN010 OVC030=



000
FTUS41 KPHI 141600 AAB
TAFILG
TAF AMD
KILG 141606Z 1416/1512 21017G27KT P6SM BKN035 OVC200
     FM142200 21017G27KT P6SM SCT035 OVC200
     FM150000 16012KT P6SM BKN100
     FM150400 16012KT P6SM VCSH SCT020 OVC050
     FM150800 16012G20KT 5SM -SHRA BR BKN015 OVC035=



000
FTUS41 KPHI 141600 AAB
TAFPHL
TAF AMD
KPHL 141605Z 1416/1518 21018G28KT P6SM BKN035 BKN200
     FM150220 19014KT P6SM SCT040 BKN100
     FM150400 19010KT P6SM VCSH SCT020 OVC050
     FM150800 19012G20KT 5SM -SHRA BR BKN015 OVC035
     FM151300 19016G26KT 3SM SHRA BR OVC010=



000
FTUS41 KPHI 141600 AAB
TAFTTN
TAF AMD
KTTN 141604Z 1416/1512 22015G25KT P6SM BKN035
     FM142200 23015G25KT P6SM SCT035 BKN150
     FM150000 19012KT P6SM BKN100
     FM150400 18010KT P6SM VCSH SCT020 OVC050
     FM150800 16012G20KT 5SM -SHRA BR BKN015 OVC035=



000
FTUS41 KPHI 141600 AAB
TAFPNE
TAF AMD
KPNE 141604Z 1416/1512 21017G27KT P6SM BKN035 OVC200
     FM142200 21015G25KT P6SM SCT035 BKN150
     FM150000 19012KT P6SM BKN100
     FM150400 19010KT P6SM VCSH SCT020 OVC050
     FM150800 16012G20KT 5SM -SHRA BR BKN015 OVC035=



000
FTUS41 KPHI 141400 AAA
TAFTTN
TAF AMD
KTTN 141426Z 1414/1512 23014G25KT P6SM BKN025
     FM141800 23015G25KT P6SM SCT035 BKN150
     FM150000 19012KT P6SM BKN100
     FM150400 18010KT P6SM VCSH SCT020 OVC050
     FM150800 16012G20KT 5SM -SHRA BR BKN015 OVC035=



000
FTUS41 KPHI 141400 AAA
TAFACY
TAF AMD
KACY 141413Z 1414/1512 19016G28KT P6SM SCT025 BKN200
      TEMPO 1415/1418 BKN025
     FM150000 17014G24KT P6SM SCT025 BKN100
     FM150400 17012G20KT P6SM VCSH SCT015 OVC040
     FM150800 17014G24KT 4SM -SHRA BR BKN010 OVC030=



000
FTUS41 KPHI 141400 AAA
TAFMIV
TAF AMD
KMIV 141412Z 1414/1512 19012G22KT P6SM SCT025 OVC200
      TEMPO 1415/1418 BKN025
     FM150000 17010KT P6SM SCT025 BKN100
     FM150400 15012KT P6SM VCSH SCT015 OVC040
     FM150800 17012G20KT 4SM -SHRA BR BKN010 OVC030=



000
FTUS41 KPHI 141400 AAA
TAFPHL
TAF AMD
KPHL 141405Z 1414/1518 21017G27KT P6SM SCT035 BKN200
      TEMPO 1415/1418 BKN025
     FM150000 19012KT P6SM BKN100
     FM150400 19010KT P6SM VCSH SCT020 OVC050
     FM150800 19012G20KT 5SM -SHRA BR BKN015 OVC035
     FM151300 19016G26KT 3SM SHRA BR OVC010=



000
FTUS41 KPHI 141400 AAA
TAFPNE
TAF AMD
KPNE 141404Z 1414/1512 21015G25KT P6SM BKN025 OVC200
     FM141800 21015G25KT P6SM SCT035 BKN150
     FM150000 19012KT P6SM BKN100
     FM150400 19010KT P6SM VCSH SCT020 OVC050
     FM150800 16012G20KT 5SM -SHRA BR BKN015 OVC035=



000
FTUS41 KPHI 141400 AAA
TAFILG
TAF AMD
KILG 141404Z 1414/1512 20015G25KT P6SM BKN025 OVC200
     FM141800 21017G27KT P6SM SCT035 OVC200
     FM150000 16012KT P6SM BKN100
     FM150400 16012KT P6SM VCSH SCT020 OVC050
     FM150800 16012G20KT 5SM -SHRA BR BKN015 OVC035=



    US Dept of Commerce
    National Oceanic and Atmospheric Administration
    National Weather Service
    1325 East West Highway
    Silver Spring, MD 20910
    Page Author: NWS Internet Services Team
Disclaimer
Information Quality
Credits
Glossary
Privacy Policy
Freedom of Information Act (FOIA)
About Us
Career Opportunities